createdAt,value
2019-06-10T00:00:16.486Z,13.58
2019-06-10T00:02:50.653Z,13.57
2019-06-10T00:05:21.588Z,13.56
2019-06-10T00:07:52.497Z,13.55
2019-06-10T00:10:23.577Z,13.51
2019-06-10T00:12:55.472Z,13.47
2019-06-10T00:15:27.402Z,13.43
2019-06-10T00:18:20.886Z,13.36
2019-06-10T00:20:30.783Z,13.33
2019-06-10T00:23:02.533Z,13.30
2019-06-10T00:25:33.720Z,13.28
2019-06-10T00:28:05.811Z,13.26
2019-06-10T00:30:36.937Z,13.23
2019-06-10T00:33:08.062Z,13.25
2019-06-10T00:35:41.193Z,13.26
2019-06-10T00:38:14.411Z,13.26
2019-06-10T00:40:45.621Z,13.26
2019-06-10T00:43:16.379Z,13.27
2019-06-10T00:45:47.075Z,13.28
2019-06-10T00:48:28.307Z,13.29
2019-06-10T00:50:51.771Z,13.32
2019-06-10T00:53:22.667Z,13.35
2019-06-10T00:55:53.349Z,13.38
2019-06-10T00:58:23.795Z,13.40
2019-06-10T01:00:54.204Z,13.43
2019-06-10T01:03:25.003Z,13.42
2019-06-10T01:05:55.597Z,13.42
2019-06-10T01:08:26.472Z,13.44
2019-06-10T01:10:57.390Z,13.46
2019-06-10T01:13:27.904Z,13.47
2019-06-10T01:15:58.306Z,13.46
2019-06-10T01:18:35.671Z,13.41
2019-06-10T01:21:01.954Z,13.39
2019-06-10T01:23:32.958Z,13.36
2019-06-10T01:26:03.606Z,13.36
2019-06-10T01:28:34.124Z,13.36
2019-06-10T01:31:08.510Z,13.33
2019-06-10T01:33:37.200Z,13.26
2019-06-10T01:36:07.791Z,13.21
2019-06-10T01:38:40.810Z,13.16
2019-06-10T01:41:12.417Z,13.10
2019-06-10T01:43:44.114Z,13.05
2019-06-10T01:46:16.280Z,13.02
2019-06-10T01:48:48.559Z,12.98
2019-06-10T01:51:21.324Z,12.98
2019-06-10T01:53:51.744Z,12.96
2019-06-10T01:56:22.108Z,12.92
2019-06-10T01:58:53.513Z,12.88
2019-06-10T02:01:46.316Z,12.82
2019-06-10T02:04:18.120Z,12.83
2019-06-10T02:06:51.134Z,12.85
2019-06-10T02:09:23.166Z,12.86
2019-06-10T02:11:53.815Z,12.86
2019-06-10T02:14:24.668Z,12.85
2019-06-10T02:16:55.629Z,12.81
2019-06-10T02:19:26.329Z,12.76
2019-06-10T02:21:56.849Z,12.74
2019-06-10T02:24:27.286Z,12.75
2019-06-10T02:26:57.800Z,12.73
2019-06-10T02:29:30.624Z,12.74
2019-06-10T02:32:04.492Z,12.72
2019-06-10T02:34:34.109Z,12.72
2019-06-10T02:37:05.119Z,12.73
2019-06-10T02:39:39.070Z,12.71
2019-06-10T02:42:17.271Z,12.65
2019-06-10T02:44:46.073Z,12.61
2019-06-10T02:47:20.382Z,12.59
2019-06-10T02:49:59.113Z,12.57
2019-06-10T02:52:29.298Z,12.58
2019-06-10T02:54:53.914Z,12.58
2019-06-10T02:57:30.415Z,12.57
2019-06-10T02:59:56.472Z,12.56
2019-06-10T03:02:31.499Z,12.53
2019-06-10T03:05:00.356Z,12.50
2019-06-10T03:07:35.265Z,12.50
2019-06-10T03:10:04.756Z,12.48
2019-06-10T03:12:35.592Z,12.47
2019-06-10T03:15:06.578Z,12.45
2019-06-10T03:17:38.282Z,12.48
2019-06-10T03:20:09.183Z,12.47
2019-06-10T03:22:42.137Z,12.49
2019-06-10T03:25:13.113Z,12.48
2019-06-10T03:27:43.806Z,12.46
2019-06-10T03:30:20.574Z,12.38
2019-06-10T03:32:47.645Z,12.33
2019-06-10T03:35:19.282Z,12.31
2019-06-10T03:37:52.786Z,12.29
2019-06-10T03:40:24.964Z,12.33
2019-06-10T03:42:55.661Z,12.31
2019-06-10T03:45:28.384Z,12.31
2019-06-10T03:48:00.538Z,12.31
2019-06-10T03:50:32.462Z,12.31
2019-06-10T03:53:05.410Z,12.31
2019-06-10T03:55:35.979Z,12.33
2019-06-10T03:58:06.841Z,12.33
2019-06-10T04:00:37.645Z,12.34
2019-06-10T04:03:08.339Z,12.30
2019-06-10T04:05:38.958Z,12.30
2019-06-10T04:08:09.857Z,12.29
2019-06-10T04:10:42.887Z,12.27
2019-06-10T04:13:13.301Z,12.27
2019-06-10T04:15:44.122Z,12.27
2019-06-10T04:18:14.592Z,12.28
2019-06-10T04:20:45.067Z,12.28
2019-06-10T04:23:15.849Z,12.29
2019-06-10T04:25:46.458Z,12.29
2019-06-10T04:28:19.786Z,12.30
2019-06-10T04:30:53.071Z,12.28
2019-06-10T04:33:27.650Z,12.29
2019-06-10T04:35:58.597Z,12.34
2019-06-10T04:38:29.222Z,12.31
2019-06-10T04:41:00.056Z,12.29
2019-06-10T04:43:32.573Z,12.27
2019-06-10T04:46:04.594Z,12.28
2019-06-10T04:48:35.409Z,12.29
2019-06-10T04:51:06.098Z,12.29
2019-06-10T04:53:40.248Z,12.30
2019-06-10T04:56:12.101Z,12.30
2019-06-10T04:58:43.330Z,12.30
2019-06-10T05:01:14.199Z,12.31
2019-06-10T05:03:44.758Z,12.30
2019-06-10T05:06:16.229Z,12.29
2019-06-10T05:08:46.827Z,12.31
2019-06-10T05:11:17.398Z,12.33
2019-06-10T05:13:49.044Z,12.34
2019-06-10T05:16:19.684Z,12.35
2019-06-10T05:18:52.402Z,12.37
2019-06-10T05:21:25.017Z,12.41
2019-06-10T05:23:55.105Z,12.42
2019-06-10T05:26:27.203Z,12.44
2019-06-10T05:28:58.078Z,12.46
2019-06-10T05:31:31.014Z,12.47
2019-06-10T05:34:02.351Z,12.49
2019-06-10T05:36:34.976Z,12.53
2019-06-10T05:39:07.603Z,12.58
2019-06-10T05:41:38.569Z,12.61
2019-06-10T05:44:09.477Z,12.63
2019-06-10T05:46:39.987Z,12.65
2019-06-10T05:49:12.482Z,12.66
2019-06-10T05:51:43.498Z,12.65
2019-06-10T05:54:14.501Z,12.69
2019-06-10T05:56:45.263Z,12.73
2019-06-10T05:59:25.868Z,12.74
2019-06-10T06:01:57.173Z,12.75
2019-06-10T06:04:28.073Z,12.76
2019-06-10T06:06:58.898Z,12.73
2019-06-10T06:09:32.327Z,12.76
2019-06-10T06:12:02.590Z,12.79
2019-06-10T06:14:34.723Z,12.76
2019-06-10T06:17:05.879Z,12.68
2019-06-10T06:19:38.456Z,12.70
2019-06-10T06:22:09.944Z,12.68
2019-06-10T06:24:42.642Z,12.68
2019-06-10T06:27:13.239Z,12.74
2019-06-10T06:29:43.807Z,12.81
2019-06-10T06:32:14.365Z,12.89
2019-06-10T06:34:44.936Z,12.97
2019-06-10T06:37:15.466Z,13.03
2019-06-10T06:39:46.370Z,13.08
2019-06-10T06:42:16.871Z,13.09
2019-06-10T06:44:47.298Z,13.08
2019-06-10T06:47:17.805Z,13.09
2019-06-10T06:49:48.928Z,13.11
2019-06-10T06:52:35.367Z,13.06
2019-06-10T06:54:53.057Z,13.02
2019-06-10T06:57:23.821Z,12.91
2019-06-10T06:59:54.432Z,12.87
2019-06-10T07:02:25.635Z,12.85
2019-06-10T07:04:56.115Z,12.85
2019-06-10T07:07:27.344Z,12.91
2019-06-10T07:10:00.450Z,12.81
2019-06-10T07:12:33.749Z,12.78
2019-06-10T07:15:06.254Z,12.75
2019-06-10T07:17:39.038Z,12.74
2019-06-10T07:20:12.519Z,12.77
2019-06-10T07:22:46.262Z,12.81
2019-06-10T07:25:15.660Z,12.84
2019-06-10T07:27:46.962Z,12.82
2019-06-10T07:30:17.902Z,12.78
2019-06-10T07:32:49.264Z,12.79
2019-06-10T07:35:22.053Z,12.79
2019-06-10T07:37:53.327Z,12.69
2019-06-10T07:40:24.035Z,12.63
2019-06-10T07:42:54.733Z,12.64
2019-06-10T07:45:25.235Z,12.62
2019-06-10T07:47:55.924Z,12.60
2019-06-10T07:50:26.673Z,12.62
2019-06-10T07:52:57.158Z,12.62
2019-06-10T07:55:28.882Z,12.64
2019-06-10T07:57:59.572Z,12.70
2019-06-10T08:00:30.414Z,12.68
2019-06-10T08:03:02.442Z,12.70
2019-06-10T08:05:34.243Z,12.73
2019-06-10T08:08:05.287Z,12.74
2019-06-10T08:10:37.134Z,12.65
2019-06-10T08:13:07.861Z,12.65
2019-06-10T08:15:39.737Z,12.68
2019-06-10T08:18:12.980Z,12.68
2019-06-10T08:20:47.636Z,12.65
2019-06-10T08:23:20.429Z,12.67
2019-06-10T08:25:56.558Z,12.64
2019-06-10T08:28:24.450Z,12.59
2019-06-10T08:30:55.857Z,12.55
2019-06-10T08:33:26.865Z,12.53
2019-06-10T08:36:00.621Z,12.53
2019-06-10T08:38:32.706Z,12.53
2019-06-10T08:41:03.558Z,12.50
2019-06-10T08:43:34.542Z,12.51
2019-06-10T08:46:05.376Z,12.54
2019-06-10T08:48:37.237Z,12.60
2019-06-10T08:51:08.256Z,12.64
2019-06-10T08:53:39.473Z,12.62
2019-06-10T08:56:12.812Z,12.61
2019-06-10T08:58:46.350Z,12.61
2019-06-10T09:01:15.408Z,12.51
2019-06-10T09:03:48.834Z,12.44
2019-06-10T09:06:18.434Z,12.45
2019-06-10T09:08:51.285Z,12.44
2019-06-10T09:11:24.019Z,12.47
2019-06-10T09:13:54.801Z,12.50
2019-06-10T09:16:25.282Z,12.47
2019-06-10T09:18:56.093Z,12.46
2019-06-10T09:21:27.956Z,12.48
2019-06-10T09:24:03.497Z,12.46
2019-06-10T09:26:33.889Z,12.51
2019-06-10T09:29:05.471Z,12.60
2019-06-10T09:31:36.032Z,12.54
2019-06-10T09:34:07.568Z,12.49
2019-06-10T09:36:38.128Z,12.54
2019-06-10T09:39:08.932Z,12.44
2019-06-10T09:41:43.229Z,12.37
2019-06-10T09:44:12.908Z,12.39
2019-06-10T09:46:47.808Z,12.38
2019-06-10T09:49:19.320Z,12.39
2019-06-10T09:51:54.830Z,12.43
2019-06-10T09:54:23.340Z,12.45
2019-06-10T09:56:54.658Z,12.47
2019-06-10T09:59:25.457Z,12.46
2019-06-10T10:02:00.008Z,12.44
2019-06-10T10:04:28.562Z,12.38
2019-06-10T10:06:59.365Z,12.37
2019-06-10T10:09:33.568Z,12.36
2019-06-10T10:12:05.905Z,12.39
2019-06-10T10:14:38.108Z,12.34
2019-06-10T10:17:09.348Z,12.30
2019-06-10T10:19:40.085Z,12.30
2019-06-10T10:22:13.954Z,12.30
2019-06-10T10:24:44.576Z,12.27
2019-06-10T10:27:16.509Z,12.30
2019-06-10T10:29:50.309Z,12.35
2019-06-10T10:32:22.229Z,12.30
2019-06-10T10:34:56.273Z,12.28
2019-06-10T10:37:25.562Z,12.33
2019-06-10T10:39:57.286Z,12.34
2019-06-10T10:42:41.623Z,12.30
2019-06-10T10:45:02.672Z,12.28
2019-06-10T10:47:33.950Z,12.27
2019-06-10T10:50:05.013Z,12.26
2019-06-10T10:52:35.678Z,12.22
2019-06-10T10:55:08.868Z,12.19
2019-06-10T10:57:39.626Z,12.19
2019-06-10T11:00:12.498Z,12.17
2019-06-10T11:02:44.955Z,12.16
2019-06-10T11:05:33.774Z,12.14
2019-06-10T11:08:06.053Z,12.10
2019-06-10T11:10:37.972Z,12.06
2019-06-10T11:13:12.129Z,12.04
2019-06-10T11:15:45.781Z,12.01
2019-06-10T11:18:16.622Z,12.03
2019-06-10T11:20:47.408Z,12.02
2019-06-10T11:23:17.950Z,11.99
2019-06-10T11:25:53.191Z,11.96
2019-06-10T11:28:22.901Z,11.93
2019-06-10T11:30:56.876Z,11.95
2019-06-10T11:33:29.325Z,11.92
2019-06-10T11:36:02.657Z,11.89
2019-06-10T11:38:33.254Z,11.87
2019-06-10T11:41:04.357Z,11.87
2019-06-10T11:43:35.765Z,11.84
2019-06-10T11:46:07.626Z,11.84
2019-06-10T11:48:38.971Z,11.83
2019-06-10T11:51:12.725Z,11.85
2019-06-10T11:53:44.052Z,11.85
2019-06-10T11:56:14.508Z,11.80
2019-06-10T11:58:44.962Z,11.76
2019-06-10T12:01:16.020Z,11.73
2019-06-10T12:03:46.806Z,11.67
2019-06-10T12:06:18.672Z,11.66
2019-06-10T12:08:49.157Z,11.66
2019-06-10T12:11:22.836Z,11.63
2019-06-10T12:13:57.749Z,11.60
2019-06-10T12:18:58.629Z,11.57
2019-06-10T12:21:32.884Z,11.51
2019-06-10T12:24:02.910Z,11.46
2019-06-10T12:26:33.683Z,11.43
2019-06-10T12:29:05.828Z,11.45
2019-06-10T12:31:37.117Z,11.42
2019-06-10T12:34:08.351Z,11.43
2019-06-10T12:36:41.861Z,11.47
2019-06-10T12:39:15.680Z,11.51
2019-06-10T12:41:45.556Z,11.50
2019-06-10T12:44:16.789Z,11.50
2019-06-10T12:46:47.822Z,11.46
2019-06-10T12:49:19.007Z,11.44
2019-06-10T12:51:52.890Z,11.45
2019-06-10T12:54:23.326Z,11.44
2019-06-10T12:56:55.290Z,11.42
2019-06-10T12:59:27.157Z,11.39
2019-06-10T13:02:01.737Z,11.38
2019-06-10T13:04:31.444Z,11.36
2019-06-10T13:07:05.726Z,11.33
2019-06-10T13:09:38.475Z,11.36
2019-06-10T13:12:09.370Z,11.33
2019-06-10T13:14:42.916Z,11.32
2019-06-10T13:17:13.173Z,11.28
2019-06-10T13:19:44.202Z,11.31
2019-06-10T13:22:16.112Z,11.29
2019-06-10T13:24:47.297Z,11.26
2019-06-10T13:27:18.206Z,11.24
2019-06-10T13:29:49.153Z,11.24
2019-06-10T13:32:19.858Z,11.27
2019-06-10T13:34:52.642Z,11.23
2019-06-10T13:37:22.914Z,11.10
2019-06-10T13:39:53.433Z,11.04
2019-06-10T13:42:24.339Z,11.00
2019-06-10T13:44:54.999Z,10.95
2019-06-10T13:47:26.200Z,10.83
2019-06-10T13:49:56.905Z,10.68
2019-06-10T13:52:27.388Z,10.61
2019-06-10T13:54:58.690Z,10.56
2019-06-10T13:57:29.222Z,10.53
2019-06-10T14:00:02.740Z,10.51
2019-06-10T14:02:32.408Z,10.51
2019-06-10T14:05:08.285Z,10.54
2019-06-10T14:07:35.197Z,10.53
2019-06-10T14:10:10.829Z,10.51
2019-06-10T14:12:39.039Z,10.52
2019-06-10T14:15:12.185Z,10.54
2019-06-10T14:17:45.332Z,10.55
2019-06-10T14:20:16.286Z,10.55
2019-06-10T14:22:46.683Z,10.54
2019-06-10T14:25:18.515Z,10.52
2019-06-10T14:27:49.123Z,10.51
2019-06-10T14:30:20.017Z,10.49
2019-06-10T14:32:52.785Z,10.45
2019-06-10T14:35:22.981Z,10.46
2019-06-10T14:37:54.024Z,10.46
2019-06-10T14:40:25.725Z,10.47
2019-06-10T14:42:56.428Z,10.47
2019-06-10T14:45:26.977Z,10.46
2019-06-10T14:47:58.809Z,10.47
2019-06-10T14:50:32.413Z,10.48
2019-06-10T14:53:03.092Z,10.48
2019-06-10T14:55:34.140Z,10.51
2019-06-10T14:58:05.387Z,10.53
2019-06-10T15:00:37.388Z,10.54
2019-06-10T15:03:09.461Z,10.57
2019-06-10T15:05:43.158Z,10.59
2019-06-10T15:08:15.431Z,10.60
2019-06-10T15:10:45.397Z,10.59
2019-06-10T15:13:16.170Z,10.57
2019-06-10T15:15:47.609Z,10.57
2019-06-10T15:18:20.615Z,10.60
2019-06-10T15:20:53.452Z,10.60
2019-06-10T15:23:24.256Z,10.63
2019-06-10T15:25:57.064Z,10.65
2019-06-10T15:28:27.350Z,10.65
2019-06-10T15:30:57.918Z,10.64
2019-06-10T15:33:28.334Z,10.65
2019-06-10T15:35:59.069Z,10.67
2019-06-10T15:38:32.534Z,10.69
2019-06-10T15:41:02.536Z,10.68
2019-06-10T15:43:33.267Z,10.70
2019-06-10T15:46:03.942Z,10.70
2019-06-10T15:48:34.772Z,10.71
2019-06-10T15:51:05.480Z,10.73
2019-06-10T15:53:35.922Z,10.74
2019-06-10T15:56:16.896Z,10.75
2019-06-10T15:58:39.324Z,10.78
2019-06-10T16:01:12.046Z,10.79
2019-06-10T16:03:42.588Z,10.80
2019-06-10T16:06:13.894Z,10.80
2019-06-10T16:08:45.715Z,10.78
2019-06-10T16:11:18.310Z,10.80
2019-06-10T16:13:48.490Z,10.81
2019-06-10T16:16:19.318Z,10.82
2019-06-10T16:18:50.020Z,10.86
2019-06-10T16:21:21.912Z,10.88
2019-06-10T16:23:53.297Z,10.87
2019-06-10T16:26:26.780Z,10.88
2019-06-10T16:28:56.748Z,10.90
2019-06-10T16:31:27.753Z,10.90
2019-06-10T16:33:58.653Z,10.90
2019-06-10T16:36:32.129Z,10.89
2019-06-10T16:39:03.441Z,10.90
2019-06-10T16:41:35.669Z,10.92
2019-06-10T16:44:06.326Z,10.92
2019-06-10T16:46:37.048Z,10.92
2019-06-10T16:49:07.776Z,10.94
2019-06-10T16:51:38.419Z,10.93
2019-06-10T16:54:09.228Z,10.99
2019-06-10T16:56:39.887Z,11.02
2019-06-10T16:59:12.316Z,11.06
2019-06-10T17:01:43.954Z,11.07
2019-06-10T17:04:14.845Z,11.12
2019-06-10T17:06:45.461Z,11.16
2019-06-10T17:09:16.408Z,11.17
2019-06-10T17:11:47.105Z,11.21
2019-06-10T17:14:20.077Z,11.23
2019-06-10T17:16:52.803Z,11.27
2019-06-10T17:19:26.692Z,11.28
2019-06-10T17:21:55.769Z,11.31
2019-06-10T17:24:27.669Z,11.35
2019-06-10T17:26:58.561Z,11.35
2019-06-10T17:29:30.616Z,11.39
2019-06-10T17:32:02.811Z,11.40
2019-06-10T17:34:34.165Z,11.42
2019-06-10T17:37:05.407Z,11.43
2019-06-10T17:39:36.093Z,11.45
2019-06-10T17:42:17.471Z,11.45
2019-06-10T17:44:47.996Z,11.43
2019-06-10T17:47:18.890Z,11.45
2019-06-10T17:49:50.058Z,11.49
2019-06-10T17:52:21.955Z,11.51
2019-06-10T17:54:54.362Z,11.53
2019-06-10T17:57:27.086Z,11.54
2019-06-10T17:59:59.455Z,11.59
2019-06-10T18:02:31.201Z,11.65
2019-06-10T18:05:03.217Z,11.70
2019-06-10T18:07:35.757Z,11.75
2019-06-10T18:10:07.182Z,11.75
2019-06-10T18:12:37.728Z,11.79
2019-06-10T18:15:08.594Z,11.83
2019-06-10T18:17:39.528Z,11.87
2019-06-10T18:20:13.340Z,11.93
2019-06-10T18:22:42.584Z,12.01
2019-06-10T18:25:13.382Z,12.01
2019-06-10T18:27:45.424Z,12.01
2019-06-10T18:30:16.508Z,12.03
2019-06-10T18:32:47.171Z,12.06
2019-06-10T18:35:18.034Z,12.08
2019-06-10T18:37:48.764Z,12.09
2019-06-10T18:40:20.442Z,12.09
2019-06-10T18:42:52.289Z,12.08
2019-06-10T18:45:23.302Z,12.10
2019-06-10T18:47:54.076Z,12.10
2019-06-10T18:50:26.231Z,12.09
2019-06-10T18:53:00.360Z,12.10
2019-06-10T18:55:34.172Z,12.12
2019-06-10T18:58:03.767Z,12.14
2019-06-10T19:00:53.496Z,12.16
2019-06-10T19:03:12.475Z,12.15
2019-06-10T19:05:39.464Z,12.18
2019-06-10T19:08:10.311Z,12.18
2019-06-10T19:10:43.182Z,12.25
2019-06-10T19:13:13.492Z,12.28
2019-06-10T19:15:44.857Z,12.30
2019-06-10T19:18:15.681Z,12.35
2019-06-10T19:20:46.328Z,12.39
2019-06-10T19:23:17.389Z,12.41
2019-06-10T19:25:48.300Z,12.46
2019-06-10T19:28:19.124Z,12.50
2019-06-10T19:30:49.697Z,12.55
2019-06-10T19:33:23.230Z,12.57
2019-06-10T19:35:53.391Z,12.56
2019-06-10T19:38:23.989Z,12.60
2019-06-10T19:40:55.001Z,12.61
2019-06-10T19:43:25.651Z,12.63
2019-06-10T19:45:56.160Z,12.61
2019-06-10T19:48:26.867Z,12.60
2019-06-10T19:50:57.450Z,12.58
2019-06-10T19:53:27.950Z,12.58
2019-06-10T19:55:58.509Z,12.58
2019-06-10T19:58:32.350Z,12.56
2019-06-10T20:01:05.809Z,12.56
2019-06-10T20:03:37.658Z,12.57
2019-06-10T20:06:08.387Z,12.59
2019-06-10T20:08:40.026Z,12.57
2019-06-10T20:11:12.380Z,12.58
2019-06-10T20:13:43.717Z,12.59
2019-06-10T20:16:16.771Z,12.58
2019-06-10T20:18:49.682Z,12.58
2019-06-10T20:21:22.568Z,12.62
2019-06-10T20:23:52.991Z,12.62
2019-06-10T20:26:23.701Z,12.60
2019-06-10T20:28:55.431Z,12.59
2019-06-10T20:31:26.165Z,12.63
2019-06-10T20:33:56.974Z,12.60
2019-06-10T20:36:27.541Z,12.62
2019-06-10T20:38:58.078Z,12.61
2019-06-10T20:41:28.793Z,12.61
2019-06-10T20:43:59.352Z,12.59
2019-06-10T20:46:32.248Z,12.58
2019-06-10T20:49:03.333Z,12.58
2019-06-10T20:51:48.687Z,12.57
2019-06-10T20:54:07.057Z,12.63
2019-06-10T20:56:38.614Z,12.60
2019-06-10T20:59:09.164Z,12.59
2019-06-10T21:01:43.252Z,12.60
2019-06-10T21:04:13.263Z,12.59
2019-06-10T21:06:45.958Z,12.61
2019-06-10T21:09:22.479Z,12.61
2019-06-10T21:11:54.365Z,12.65
2019-06-10T21:14:25.417Z,12.68
2019-06-10T21:16:56.171Z,12.71
2019-06-10T21:19:27.413Z,12.68
2019-06-10T21:21:57.970Z,12.70
2019-06-10T21:24:28.689Z,12.66
2019-06-10T21:26:59.429Z,12.63
2019-06-10T21:29:32.180Z,12.56
2019-06-10T21:32:03.747Z,12.45
2019-06-10T21:34:34.346Z,12.38
2019-06-10T21:37:04.865Z,12.29
2019-06-10T21:39:35.275Z,12.20
2019-06-10T21:42:05.789Z,12.14
2019-06-10T21:44:36.412Z,12.13
2019-06-10T21:47:07.205Z,12.12
2019-06-10T21:49:37.790Z,12.09
2019-06-10T21:52:08.528Z,12.02
2019-06-10T21:54:39.144Z,11.96
2019-06-10T21:57:09.701Z,11.90
2019-06-10T21:59:43.900Z,11.79
2019-06-10T22:02:15.206Z,11.76
2019-06-10T22:04:46.674Z,11.67
2019-06-10T22:07:18.385Z,11.66
2019-06-10T22:09:53.140Z,11.63
2019-06-10T22:12:23.097Z,11.58
2019-06-10T22:14:54.664Z,11.50
2019-06-10T22:17:25.318Z,11.48
2019-06-10T22:19:56.454Z,11.46
2019-06-10T22:22:26.992Z,11.46
2019-06-10T22:24:57.699Z,11.46
2019-06-10T22:27:28.448Z,11.45
2019-06-10T22:29:59.126Z,11.43
2019-06-10T22:32:32.235Z,11.46
2019-06-10T22:35:02.992Z,11.47
2019-06-10T22:37:33.952Z,11.46
2019-06-10T22:40:04.584Z,11.47
2019-06-10T22:42:35.179Z,11.46
2019-06-10T22:45:06.041Z,11.44
2019-06-10T22:47:36.521Z,11.44
2019-06-10T22:50:08.169Z,11.45
2019-06-10T22:52:38.786Z,11.46
2019-06-10T22:55:09.677Z,11.46
2019-06-10T22:57:43.976Z,11.45
2019-06-10T23:00:14.141Z,11.45
2019-06-10T23:02:44.611Z,11.45
2019-06-10T23:05:17.422Z,11.44
2019-06-10T23:07:48.250Z,11.47
2019-06-10T23:10:18.906Z,11.47
2019-06-10T23:12:50.573Z,11.46
2019-06-10T23:15:23.513Z,11.43
2019-06-10T23:17:56.745Z,11.39
2019-06-10T23:20:27.262Z,11.35
2019-06-10T23:22:59.152Z,11.28
2019-06-10T23:25:32.511Z,11.22
2019-06-10T23:28:02.259Z,11.17
2019-06-10T23:30:33.137Z,11.17
2019-06-10T23:33:03.917Z,11.16
2019-06-10T23:35:34.454Z,11.16
2019-06-10T23:38:05.406Z,11.18
2019-06-10T23:40:37.728Z,11.20
2019-06-10T23:43:08.148Z,11.22
2019-06-10T23:45:38.624Z,11.23
2019-06-10T23:48:09.025Z,11.21
2019-06-10T23:50:39.886Z,11.13
2019-06-10T23:53:13.244Z,11.02
2019-06-10T23:55:43.012Z,10.99
2019-06-10T23:58:13.744Z,10.96
